Change the Weather History Date:

Thursday, December 15, 2011

  Actual Average Record
Temperature  
Mean Temperature 42 °F -  
Max Temperature 53 °F 34 °F 58 °F (1975)
Min Temperature 32 °F 18 °F -13 °F (1989)
Degree Days  
Heating Degree Days 22    
Moisture  
Dew Point 33 °F    
Average Humidity 80    
Maximum Humidity 92    
Minimum Humidity 67    
Precipitation  
Precipitation 0.00 in - - ()
Sea Level Pressure  
Sea Level Pressure 29.88 in    
Wind  
Wind Speed 16 mph (WSW)    
Max Wind Speed 26 mph    
Max Gust Speed 34 mph    
Visibility 10 miles    
Events      
Averages and records for this station are not official NWS values.
T = Trace of Precipitation, MM = Missing Value Source: NWS Daily Summary

Daily Weather History Graph

Daily Weather History Graph

Search for Another Location

Airport or City:

Trip Planner

Search our weather history database for the weather conditions in past years. The results will help you decide how hot, cold, wet, or windy it might be!

Date:

Astronomy

Dec. 15, 2011 Rise Set
Actual Time 7:19 AM CST 4:26 PM CST
Civil Twilight 6:48 AM CST 4:58 PM CST
Nautical Twilight 6:12 AM CST 5:34 PM CST
Astronomical Twilight 5:38 AM CST 6:08 PM CST
Moon 9:58 PM CST (12/15) 10:31 AM CST (12/15)
Length of Visible Light 10h 10m
Length of Day
9h 06m
Waning Gibbous, 74% of the Moon is Illuminated
Dec 15
Waning Gibbous
Dec 17
Last Quarter
Dec 24
New
Jan 1
First Quarter
Jan 9
Full

Hourly Weather History & Observations

Time (CST) Temp. Windchill Dew Point Humidity Pressure Visibility Wind Dir Wind Speed Gust Speed Precip Events Conditions
12:15 AM 53.2 °F - 51.1 °F 92% 29.63 in 10.0 mi SSW 13.8 mph 23.0 mph N/A   Overcast
12:35 AM 52.9 °F - 50.5 °F 92% 29.63 in 10.0 mi SSW 12.7 mph 19.6 mph N/A   Overcast
12:55 AM 52.2 °F - 49.3 °F 90% 29.63 in 10.0 mi SW 13.8 mph 19.6 mph N/A   Overcast
1:15 AM 52.0 °F - 48.2 °F 87% 29.63 in 10.0 mi SW 15.0 mph 20.7 mph N/A   Overcast
1:35 AM 52.0 °F - 48.4 °F 88% 29.64 in 10.0 mi SW 13.8 mph 23.0 mph N/A   Overcast
1:55 AM 51.8 °F - 48.2 °F 88% 29.65 in 10.0 mi WSW 21.9 mph 28.8 mph N/A   Mostly Cloudy
2:15 AM 49.5 °F - 45.5 °F 86% 29.66 in 10.0 mi SW 15.0 mph 21.9 mph N/A   Overcast
2:35 AM 49.5 °F - 45.9 °F 87% 29.67 in 10.0 mi WSW 12.7 mph - N/A   Overcast
2:55 AM 46.8 °F - 42.6 °F 85% 29.68 in 10.0 mi WSW 17.3 mph 27.6 mph N/A   Overcast
3:15 AM 45.5 °F 38.3 °F 41.2 °F 85% 29.68 in 10.0 mi WSW 17.3 mph 29.9 mph N/A   Overcast
3:35 AM 44.6 °F 37.8 °F 41.0 °F 87% 29.69 in 10.0 mi West 15.0 mph 20.7 mph N/A   Overcast
3:55 AM 44.2 °F 37.6 °F 41.0 °F 88% 29.69 in 10.0 mi WSW 13.8 mph - N/A   Overcast
4:15 AM 44.2 °F 38.0 °F 41.0 °F 88% 29.69 in 10.0 mi WSW 12.7 mph 18.4 mph N/A   Overcast
4:35 AM 43.3 °F 36.8 °F 39.9 °F 88% 29.70 in 10.0 mi WSW 12.7 mph 23.0 mph N/A   Overcast
4:55 AM 43.0 °F 36.0 °F 39.6 °F 88% 29.71 in 10.0 mi WSW 13.8 mph 20.7 mph N/A   Overcast
5:15 AM 42.6 °F 35.9 °F 38.7 °F 86% 29.72 in 10.0 mi WSW 12.7 mph - N/A   Overcast
5:35 AM 41.9 °F 34.6 °F 37.9 °F 86% 29.73 in 10.0 mi WSW 13.8 mph 21.9 mph N/A   Overcast
5:55 AM 41.9 °F 35.0 °F 37.9 °F 86% 29.74 in 10.0 mi WSW 12.7 mph - N/A   Overcast
6:35 AM 41.9 °F 34.6 °F 38.3 °F 87% 29.75 in 10.0 mi WSW 13.8 mph 19.6 mph N/A   Overcast
6:55 AM 41.9 °F 33.7 °F 37.8 °F 85% 29.76 in 10.0 mi WSW 17.3 mph 24.2 mph N/A   Overcast
7:15 AM 41.9 °F 35.0 °F 37.9 °F 86% 29.77 in 10.0 mi WSW 12.7 mph 19.6 mph N/A   Overcast
7:35 AM 40.5 °F 33.2 °F 36.5 °F 86% 29.78 in 10.0 mi WSW 12.7 mph - N/A   Overcast
7:55 AM 40.1 °F 33.6 °F 36.0 °F 85% 29.79 in 10.0 mi WSW 10.4 mph 18.4 mph N/A   Overcast
8:15 AM 39.2 °F 30.8 °F 35.6 °F 87% 29.80 in 10.0 mi WSW 15.0 mph 23.0 mph N/A   Overcast
8:35 AM 39.2 °F 32.5 °F 35.6 °F 87% 29.81 in 10.0 mi WSW 10.4 mph 23.0 mph N/A   Overcast
8:55 AM 39.0 °F 31.0 °F 35.4 °F 87% 29.83 in 10.0 mi WSW 13.8 mph 20.7 mph N/A   Overcast
9:15 AM 37.9 °F 27.9 °F 34.0 °F 86% 29.83 in 10.0 mi WSW 19.6 mph 25.3 mph N/A   Overcast
9:35 AM 36.9 °F 27.1 °F 32.9 °F 86% 29.85 in 10.0 mi WSW 17.3 mph 23.0 mph N/A   Overcast
9:55 AM 36.7 °F 27.2 °F 32.4 °F 84% 29.86 in 10.0 mi West 16.1 mph 24.2 mph N/A   Overcast
10:15 AM 36.7 °F 26.3 °F 32.4 °F 84% 29.87 in 10.0 mi WSW 19.6 mph 24.2 mph N/A   Overcast
10:35 AM 36.7 °F 25.7 °F 32.9 °F 86% 29.87 in 10.0 mi WSW 21.9 mph 26.5 mph N/A   Overcast
10:55 AM 36.7 °F 26.6 °F 32.7 °F 86% 29.89 in 10.0 mi WSW 18.4 mph 29.9 mph N/A   Overcast
11:15 AM 34.2 °F 23.0 °F 30.4 °F 86% 29.90 in 7.0 mi WSW 19.6 mph 29.9 mph N/A   Overcast
11:35 AM 33.1 °F 21.2 °F 28.6 °F 84% 29.91 in 10.0 mi WSW 20.7 mph 29.9 mph N/A   Overcast
11:55 AM 32.2 °F 19.4 °F 28.0 °F 85% 29.92 in 10.0 mi WSW 23.0 mph 28.8 mph N/A   Overcast
12:15 PM 32.0 °F 20.1 °F 27.1 °F 82% 29.93 in 7.0 mi West 19.6 mph 34.5 mph N/A   Overcast
12:35 PM 32.0 °F 19.8 °F 25.5 °F 77% 29.94 in 10.0 mi West 20.7 mph 32.2 mph N/A   Overcast
12:55 PM 32.0 °F 19.2 °F 24.4 °F 74% 29.94 in 10.0 mi West 23.0 mph 31.1 mph N/A   Overcast
1:15 PM 32.2 °F 18.6 °F 24.6 °F 74% 29.94 in 10.0 mi West 26.5 mph 34.5 mph N/A   Overcast
1:35 PM 32.9 °F 19.6 °F 24.3 °F 71% 29.95 in 10.0 mi West 26.5 mph 32.2 mph N/A   Overcast
1:55 PM 32.9 °F 21.6 °F 24.6 °F 72% 29.96 in 10.0 mi West 18.4 mph 32.2 mph N/A   Overcast
2:15 PM 32.9 °F 19.6 °F 24.4 °F 71% 29.97 in 10.0 mi West 26.5 mph 32.2 mph N/A   Overcast
2:35 PM 33.4 °F 21.1 °F 25.2 °F 72% 29.98 in 10.0 mi West 23.0 mph 33.4 mph N/A   Overcast
2:55 PM 33.6 °F 22.2 °F 25.5 °F 72% 30.00 in 10.0 mi West 19.6 mph 28.8 mph N/A   Overcast
3:15 PM 33.6 °F 21.3 °F 25.3 °F 72% 30.01 in 10.0 mi West 23.0 mph 28.8 mph N/A   Overcast
3:35 PM 33.3 °F 21.5 °F 24.8 °F 71% 30.02 in 10.0 mi West 20.7 mph 29.9 mph N/A   Overcast
3:55 PM 32.9 °F 21.6 °F 23.2 °F 67% 30.04 in 10.0 mi West 18.4 mph 28.8 mph N/A   Overcast
4:15 PM 32.9 °F 21.6 °F 23.0 °F 67% 30.06 in 10.0 mi West 18.4 mph 33.4 mph N/A   Overcast
4:35 PM 32.9 °F 22.4 °F 23.4 °F 68% 30.07 in 10.0 mi West 16.1 mph 27.6 mph N/A   Overcast
4:55 PM 32.9 °F 20.7 °F 23.5 °F 68% 30.08 in 10.0 mi West 21.9 mph 28.8 mph N/A   Overcast
5:15 PM 32.0 °F 19.2 °F 22.6 °F 68% 30.09 in 10.0 mi West 23.0 mph 32.2 mph N/A   Overcast
5:35 PM 32.0 °F 20.5 °F 22.8 °F 69% 30.10 in 10.0 mi West 18.4 mph 27.6 mph N/A   Overcast
5:55 PM 32.0 °F 18.6 °F 22.5 °F 68% 30.11 in 10.0 mi West 25.3 mph 32.2 mph N/A   Overcast
6:15 PM 32.0 °F 20.1 °F 23.0 °F 69% 30.12 in 10.0 mi West 19.6 mph 32.2 mph N/A   Overcast
6:35 PM 32.0 °F 20.8 °F 22.3 °F 67% 30.13 in 10.0 mi West 17.3 mph 26.5 mph N/A   Overcast
6:55 PM 32.0 °F 22.1 °F 23.0 °F 69% 30.14 in 10.0 mi West 13.8 mph 23.0 mph N/A   Overcast
7:15 PM 32.0 °F 21.2 °F 22.6 °F 68% 30.15 in 10.0 mi West 16.1 mph 24.2 mph N/A   Overcast
7:35 PM 32.0 °F 22.1 °F 22.8 °F 69% 30.16 in 10.0 mi West 13.8 mph 24.2 mph N/A   Overcast
7:55 PM 32.0 °F 22.1 °F 23.0 °F 69% 30.17 in 10.0 mi West 13.8 mph 20.7 mph N/A   Overcast
8:15 PM 32.0 °F 22.5 °F 23.5 °F 71% 30.19 in 10.0 mi West 12.7 mph 17.3 mph N/A   Overcast
8:35 PM 32.0 °F 22.1 °F 24.8 °F 75% 30.19 in 10.0 mi West 13.8 mph - N/A   Overcast
8:55 PM 32.0 °F 23.0 °F 24.6 °F 74% 30.21 in 10.0 mi WSW 11.5 mph 17.3 mph N/A   Overcast
9:15 PM 32.0 °F 22.5 °F 24.4 °F 74% 30.21 in 10.0 mi WSW 12.7 mph 18.4 mph N/A   Overcast
9:35 PM 29.3 °F 19.6 °F 22.3 °F 75% 30.22 in 10.0 mi WSW 11.5 mph 17.3 mph N/A   Mostly Cloudy
9:55 PM 29.3 °F 20.8 °F 22.8 °F 77% 30.24 in 10.0 mi WSW 9.2 mph - N/A   Scattered Clouds
10:15 PM 29.3 °F 20.2 °F 22.8 °F 77% 30.25 in 10.0 mi WSW 10.4 mph - N/A   Mostly Cloudy
10:35 PM 29.3 °F 19.6 °F 23.0 °F 77% 30.25 in 10.0 mi West 11.5 mph - N/A   Mostly Cloudy
10:55 PM 29.3 °F 19.1 °F 22.8 °F 77% 30.26 in 10.0 mi West 12.7 mph 19.6 mph N/A   Overcast
11:15 PM 29.3 °F 18.6 °F 23.0 °F 77% 30.27 in 10.0 mi WSW 13.8 mph 19.6 mph N/A   Overcast
11:35 PM 27.1 °F 18.2 °F 21.2 °F 78% 30.28 in 10.0 mi West 9.2 mph - N/A   Scattered Clouds
11:55 PM 27.0 °F 17.3 °F 21.4 °F 79% 30.28 in 10.0 mi West 10.4 mph - N/A   Clear